sensor_id;sensor_type;location;lat;lon;timestamp;temperature;humidity
12827;DHT22;66927;48.812;9.118;2024-03-08T00:01:09;6.30;99.90
12827;DHT22;66927;48.812;9.118;2024-03-08T00:03:35;6.20;99.90
12827;DHT22;66927;48.812;9.118;2024-03-08T00:06:01;6.20;99.90
12827;DHT22;66927;48.812;9.118;2024-03-08T00:08:28;6.20;99.90
12827;DHT22;66927;48.812;9.118;2024-03-08T00:10:54;6.20;99.90
12827;DHT22;66927;48.812;9.118;2024-03-08T00:13:20;6.20;99.90
12827;DHT22;66927;48.812;9.118;2024-03-08T00:15:47;6.10;99.90
12827;DHT22;66927;48.812;9.118;2024-03-08T00:18:14;6.00;99.90
12827;DHT22;66927;48.812;9.118;2024-03-08T00:20:39;6.00;99.90
12827;DHT22;66927;48.812;9.118;2024-03-08T00:23:05;6.00;99.90
12827;DHT22;66927;48.812;9.118;2024-03-08T00:25:30;6.00;99.90
12827;DHT22;66927;48.812;9.118;2024-03-08T00:27:56;5.90;99.90
12827;DHT22;66927;48.812;9.118;2024-03-08T00:30:22;5.90;99.90
12827;DHT22;66927;48.812;9.118;2024-03-08T00:32:49;5.90;99.90
12827;DHT22;66927;48.812;9.118;2024-03-08T00:35:14;5.90;99.90
12827;DHT22;66927;48.812;9.118;2024-03-08T00:37:40;6.00;99.90
12827;DHT22;66927;48.812;9.118;2024-03-08T00:40:08;6.00;99.90
12827;DHT22;66927;48.812;9.118;2024-03-08T00:42:35;6.00;99.90
12827;DHT22;66927;48.812;9.118;2024-03-08T00:45:01;6.00;99.90
12827;DHT22;66927;48.812;9.118;2024-03-08T00:47:27;6.00;99.90
12827;DHT22;66927;48.812;9.118;2024-03-08T00:49:53;5.90;99.90
12827;DHT22;66927;48.812;9.118;2024-03-08T00:52:21;6.00;99.90
12827;DHT22;66927;48.812;9.118;2024-03-08T00:54:49;6.00;99.90
12827;DHT22;66927;48.812;9.118;2024-03-08T00:57:15;5.90;99.90
12827;DHT22;66927;48.812;9.118;2024-03-08T00:59:40;5.90;99.90
12827;DHT22;66927;48.812;9.118;2024-03-08T01:02:08;5.80;99.90
12827;DHT22;66927;48.812;9.118;2024-03-08T01:04:36;5.80;99.90
12827;DHT22;66927;48.812;9.118;2024-03-08T01:07:02;5.80;99.90
12827;DHT22;66927;48.812;9.118;2024-03-08T01:09:28;5.80;99.90
12827;DHT22;66927;48.812;9.118;2024-03-08T01:11:54;5.70;99.90
12827;DHT22;66927;48.812;9.118;2024-03-08T01:14:21;5.70;99.90
12827;DHT22;66927;48.812;9.118;2024-03-08T01:16:50;5.70;99.90
12827;DHT22;66927;48.812;9.118;2024-03-08T01:19:16;5.60;99.90
12827;DHT22;66927;48.812;9.118;2024-03-08T01:21:43;5.70;99.90
12827;DHT22;66927;48.812;9.118;2024-03-08T01:24:08;5.70;99.90
12827;DHT22;66927;48.812;9.118;2024-03-08T01:26:34;5.70;99.90
12827;DHT22;66927;48.812;9.118;2024-03-08T01:29:00;5.70;99.90
12827;DHT22;66927;48.812;9.118;2024-03-08T01:31:28;5.80;99.90
12827;DHT22;66927;48.812;9.118;2024-03-08T01:33:55;5.70;99.90
12827;DHT22;66927;48.812;9.118;2024-03-08T01:36:21;5.70;99.90
12827;DHT22;66927;48.812;9.118;2024-03-08T01:38:47;5.60;99.90
12827;DHT22;66927;48.812;9.118;2024-03-08T01:41:13;5.70;99.90
12827;DHT22;66927;48.812;9.118;2024-03-08T01:43:41;5.60;99.90
12827;DHT22;66927;48.812;9.118;2024-03-08T01:46:07;5.70;99.90
12827;DHT22;66927;48.812;9.118;2024-03-08T01:48:34;5.60;99.90
12827;DHT22;66927;48.812;9.118;2024-03-08T01:51:00;5.70;99.90
12827;DHT22;66927;48.812;9.118;2024-03-08T01:53:26;5.70;99.90
12827;DHT22;66927;48.812;9.118;2024-03-08T01:55:56;5.60;99.90
12827;DHT22;66927;48.812;9.118;2024-03-08T01:58:27;5.50;99.90
12827;DHT22;66927;48.812;9.118;2024-03-08T02:00:54;5.60;99.90
12827;DHT22;66927;48.812;9.118;2024-03-08T02:03:21;5.50;99.90
12827;DHT22;66927;48.812;9.118;2024-03-08T02:05:47;5.50;99.90
12827;DHT22;66927;48.812;9.118;2024-03-08T02:08:14;5.40;99.90
12827;DHT22;66927;48.812;9.118;2024-03-08T02:10:41;5.30;99.90
12827;DHT22;66927;48.812;9.118;2024-03-08T02:13:11;5.30;99.90
12827;DHT22;66927;48.812;9.118;2024-03-08T02:15:56;5.30;99.90
12827;DHT22;66927;48.812;9.118;2024-03-08T02:18:23;5.30;99.90
12827;DHT22;66927;48.812;9.118;2024-03-08T02:20:52;5.30;99.90
12827;DHT22;66927;48.812;9.118;2024-03-08T02:23:22;5.30;99.90
12827;DHT22;66927;48.812;9.118;2024-03-08T02:25:48;5.30;99.90
12827;DHT22;66927;48.812;9.118;2024-03-08T02:28:14;5.30;99.90
12827;DHT22;66927;48.812;9.118;2024-03-08T02:30:40;5.40;99.90
12827;DHT22;66927;48.812;9.118;2024-03-08T02:33:07;5.20;99.90
12827;DHT22;66927;48.812;9.118;2024-03-08T02:35:35;5.20;99.90
12827;DHT22;66927;48.812;9.118;2024-03-08T02:38:01;5.20;99.90
12827;DHT22;66927;48.812;9.118;2024-03-08T02:40:27;5.10;99.90
12827;DHT22;66927;48.812;9.118;2024-03-08T02:42:52;5.20;99.90
12827;DHT22;66927;48.812;9.118;2024-03-08T02:45:19;5.10;99.90
12827;DHT22;66927;48.812;9.118;2024-03-08T02:47:46;5.00;99.90
12827;DHT22;66927;48.812;9.118;2024-03-08T02:50:11;5.00;99.90
12827;DHT22;66927;48.812;9.118;2024-03-08T02:52:39;5.00;99.90
12827;DHT22;66927;48.812;9.118;2024-03-08T02:55:07;5.00;99.90
12827;DHT22;66927;48.812;9.118;2024-03-08T02:57:33;5.10;99.90
12827;DHT22;66927;48.812;9.118;2024-03-08T02:59:59;4.80;99.90
12827;DHT22;66927;48.812;9.118;2024-03-08T03:02:25;5.00;99.90
12827;DHT22;66927;48.812;9.118;2024-03-08T03:04:52;4.90;99.90
12827;DHT22;66927;48.812;9.118;2024-03-08T03:07:18;4.90;99.90
12827;DHT22;66927;48.812;9.118;2024-03-08T03:09:43;5.00;99.90
12827;DHT22;66927;48.812;9.118;2024-03-08T03:12:09;5.00;99.90
12827;DHT22;66927;48.812;9.118;2024-03-08T03:14:38;5.00;99.90
12827;DHT22;66927;48.812;9.118;2024-03-08T03:17:05;5.00;99.90
12827;DHT22;66927;48.812;9.118;2024-03-08T03:19:30;5.00;99.90
12827;DHT22;66927;48.812;9.118;2024-03-08T03:21:56;5.00;99.90
12827;DHT22;66927;48.812;9.118;2024-03-08T03:24:22;5.00;99.90
12827;DHT22;66927;48.812;9.118;2024-03-08T03:26:49;5.00;99.90
12827;DHT22;66927;48.812;9.118;2024-03-08T03:29:15;5.00;99.90
12827;DHT22;66927;48.812;9.118;2024-03-08T03:31:43;5.00;99.90
12827;DHT22;66927;48.812;9.118;2024-03-08T03:34:12;5.00;99.90
12827;DHT22;66927;48.812;9.118;2024-03-08T03:36:39;4.90;99.90
12827;DHT22;66927;48.812;9.118;2024-03-08T03:39:08;4.90;99.90
12827;DHT22;66927;48.812;9.118;2024-03-08T03:41:42;4.80;99.90
12827;DHT22;66927;48.812;9.118;2024-03-08T03:44:10;4.80;99.90
12827;DHT22;66927;48.812;9.118;2024-03-08T03:46:35;4.80;99.90
12827;DHT22;66927;48.812;9.118;2024-03-08T03:49:02;4.70;99.90
12827;DHT22;66927;48.812;9.118;2024-03-08T03:51:29;4.70;99.90
12827;DHT22;66927;48.812;9.118;2024-03-08T03:53:56;4.80;99.90
12827;DHT22;66927;48.812;9.118;2024-03-08T03:56:26;4.80;99.90
12827;DHT22;66927;48.812;9.118;2024-03-08T03:58:52;4.70;99.90
12827;DHT22;66927;48.812;9.118;2024-03-08T04:01:17;4.70;99.90
12827;DHT22;66927;48.812;9.118;2024-03-08T04:03:44;4.60;99.90
12827;DHT22;66927;48.812;9.118;2024-03-08T04:06:10;4.60;99.90
12827;DHT22;66927;48.812;9.118;2024-03-08T04:08:36;4.60;99.90
12827;DHT22;66927;48.812;9.118;2024-03-08T04:11:01;4.70;99.90
12827;DHT22;66927;48.812;9.118;2024-03-08T04:13:28;4.60;99.90
12827;DHT22;66927;48.812;9.118;2024-03-08T04:15:53;4.60;99.90
12827;DHT22;66927;48.812;9.118;2024-03-08T04:18:19;4.40;99.90
12827;DHT22;66927;48.812;9.118;2024-03-08T04:20:45;4.60;99.90
12827;DHT22;66927;48.812;9.118;2024-03-08T04:23:11;4.50;99.90
12827;DHT22;66927;48.812;9.118;2024-03-08T04:25:36;4.50;99.90
12827;DHT22;66927;48.812;9.118;2024-03-08T04:28:03;4.70;99.90
12827;DHT22;66927;48.812;9.118;2024-03-08T04:30:28;4.60;99.90
12827;DHT22;66927;48.812;9.118;2024-03-08T04:32:55;4.50;99.90
12827;DHT22;66927;48.812;9.118;2024-03-08T04:35:21;4.60;99.90
12827;DHT22;66927;48.812;9.118;2024-03-08T04:37:46;4.50;99.90
12827;DHT22;66927;48.812;9.118;2024-03-08T04:40:13;4.50;99.90
12827;DHT22;66927;48.812;9.118;2024-03-08T04:42:39;4.60;99.90
12827;DHT22;66927;48.812;9.118;2024-03-08T04:45:06;4.60;99.90
12827;DHT22;66927;48.812;9.118;2024-03-08T04:47:33;4.50;99.90
12827;DHT22;66927;48.812;9.118;2024-03-08T04:49:59;4.40;99.90
12827;DHT22;66927;48.812;9.118;2024-03-08T04:52:25;4.60;99.90
12827;DHT22;66927;48.812;9.118;2024-03-08T04:54:51;4.50;99.90
12827;DHT22;66927;48.812;9.118;2024-03-08T04:57:16;4.60;99.90
12827;DHT22;66927;48.812;9.118;2024-03-08T04:59:43;4.40;99.90
12827;DHT22;66927;48.812;9.118;2024-03-08T05:02:09;4.40;99.90
12827;DHT22;66927;48.812;9.118;2024-03-08T05:04:36;4.50;99.90
12827;DHT22;66927;48.812;9.118;2024-03-08T05:07:02;4.50;99.90
12827;DHT22;66927;48.812;9.118;2024-03-08T05:09:28;4.40;99.90
12827;DHT22;66927;48.812;9.118;2024-03-08T05:11:54;4.40;99.90
12827;DHT22;66927;48.812;9.118;2024-03-08T05:14:20;4.40;99.90
12827;DHT22;66927;48.812;9.118;2024-03-08T05:16:47;4.40;99.90
12827;DHT22;66927;48.812;9.118;2024-03-08T05:19:20;4.40;99.90
12827;DHT22;66927;48.812;9.118;2024-03-08T05:21:47;4.40;99.90
12827;DHT22;66927;48.812;9.118;2024-03-08T05:24:14;4.40;99.90
12827;DHT22;66927;48.812;9.118;2024-03-08T05:26:41;4.40;99.90
12827;DHT22;66927;48.812;9.118;2024-03-08T05:29:08;4.40;99.90
12827;DHT22;66927;48.812;9.118;2024-03-08T05:31:51;4.50;99.90
12827;DHT22;66927;48.812;9.118;2024-03-08T05:34:21;4.40;99.90
12827;DHT22;66927;48.812;9.118;2024-03-08T05:36:47;4.40;99.90
12827;DHT22;66927;48.812;9.118;2024-03-08T05:39:16;4.30;99.90
12827;DHT22;66927;48.812;9.118;2024-03-08T05:41:43;4.40;99.90
12827;DHT22;66927;48.812;9.118;2024-03-08T05:44:11;4.30;99.90
12827;DHT22;66927;48.812;9.118;2024-03-08T05:46:37;4.30;99.90
12827;DHT22;66927;48.812;9.118;2024-03-08T05:49:03;4.30;99.90
12827;DHT22;66927;48.812;9.118;2024-03-08T05:51:34;4.30;99.90
12827;DHT22;66927;48.812;9.118;2024-03-08T05:54:05;4.40;99.90
12827;DHT22;66927;48.812;9.118;2024-03-08T05:56:31;4.40;99.90
12827;DHT22;66927;48.812;9.118;2024-03-08T05:58:57;4.30;99.90
12827;DHT22;66927;48.812;9.118;2024-03-08T06:01:26;4.40;99.90
12827;DHT22;66927;48.812;9.118;2024-03-08T06:03:54;4.30;99.90
12827;DHT22;66927;48.812;9.118;2024-03-08T06:06:24;4.30;99.90
12827;DHT22;66927;48.812;9.118;2024-03-08T06:08:51;4.30;99.90
12827;DHT22;66927;48.812;9.118;2024-03-08T06:11:18;4.30;99.90
12827;DHT22;66927;48.812;9.118;2024-03-08T06:13:47;4.30;99.90
12827;DHT22;66927;48.812;9.118;2024-03-08T06:16:13;4.30;99.90
12827;DHT22;66927;48.812;9.118;2024-03-08T06:18:39;4.30;99.90
12827;DHT22;66927;48.812;9.118;2024-03-08T06:21:06;4.30;99.90
12827;DHT22;66927;48.812;9.118;2024-03-08T06:23:35;4.40;99.90
12827;DHT22;66927;48.812;9.118;2024-03-08T06:26:05;4.30;99.90
12827;DHT22;66927;48.812;9.118;2024-03-08T06:28:31;4.30;99.90
12827;DHT22;66927;48.812;9.118;2024-03-08T06:30:58;4.30;99.90
12827;DHT22;66927;48.812;9.118;2024-03-08T06:33:24;4.30;99.90
12827;DHT22;66927;48.812;9.118;2024-03-08T06:35:53;4.30;99.90
12827;DHT22;66927;48.812;9.118;2024-03-08T06:38:23;4.20;99.90
12827;DHT22;66927;48.812;9.118;2024-03-08T06:40:49;4.20;99.90
12827;DHT22;66927;48.812;9.118;2024-03-08T06:43:16;4.10;99.90
12827;DHT22;66927;48.812;9.118;2024-03-08T06:45:44;4.20;99.90
12827;DHT22;66927;48.812;9.118;2024-03-08T06:48:14;4.20;99.90
12827;DHT22;66927;48.812;9.118;2024-03-08T06:50:40;4.40;99.90
12827;DHT22;66927;48.812;9.118;2024-03-08T06:53:07;4.30;99.90
12827;DHT22;66927;48.812;9.118;2024-03-08T06:55:33;4.30;99.90
12827;DHT22;66927;48.812;9.118;2024-03-08T06:57:58;4.30;99.90
12827;DHT22;66927;48.812;9.118;2024-03-08T07:00:24;4.40;99.90
12827;DHT22;66927;48.812;9.118;2024-03-08T07:02:52;4.30;99.90
12827;DHT22;66927;48.812;9.118;2024-03-08T07:05:19;4.30;99.90
12827;DHT22;66927;48.812;9.118;2024-03-08T07:07:45;4.40;99.90
12827;DHT22;66927;48.812;9.118;2024-03-08T07:10:13;4.30;99.90
12827;DHT22;66927;48.812;9.118;2024-03-08T07:12:41;4.40;99.90
12827;DHT22;66927;48.812;9.118;2024-03-08T07:15:07;4.20;99.90
12827;DHT22;66927;48.812;9.118;2024-03-08T07:17:33;4.40;99.90
12827;DHT22;66927;48.812;9.118;2024-03-08T07:20:00;4.40;99.90
12827;DHT22;66927;48.812;9.118;2024-03-08T07:22:32;4.50;99.90
12827;DHT22;66927;48.812;9.118;2024-03-08T07:24:59;4.40;99.90
12827;DHT22;66927;48.812;9.118;2024-03-08T07:27:43;4.50;99.90
12827;DHT22;66927;48.812;9.118;2024-03-08T07:30:09;4.50;99.90
12827;DHT22;66927;48.812;9.118;2024-03-08T07:32:59;4.50;99.90
12827;DHT22;66927;48.812;9.118;2024-03-08T07:35:24;4.50;99.90
12827;DHT22;66927;48.812;9.118;2024-03-08T07:37:52;4.40;99.90
12827;DHT22;66927;48.812;9.118;2024-03-08T07:40:21;4.50;99.90
12827;DHT22;66927;48.812;9.118;2024-03-08T07:42:46;4.40;99.90
12827;DHT22;66927;48.812;9.118;2024-03-08T07:45:12;4.40;99.90
12827;DHT22;66927;48.812;9.118;2024-03-08T07:47:38;4.40;99.90
12827;DHT22;66927;48.812;9.118;2024-03-08T07:50:04;4.40;99.90
12827;DHT22;66927;48.812;9.118;2024-03-08T07:52:30;4.40;99.90
12827;DHT22;66927;48.812;9.118;2024-03-08T07:54:55;4.40;99.90
12827;DHT22;66927;48.812;9.118;2024-03-08T07:57:21;4.50;99.90
12827;DHT22;66927;48.812;9.118;2024-03-08T07:59:47;4.40;99.90
12827;DHT22;66927;48.812;9.118;2024-03-08T08:02:12;4.50;99.90
12827;DHT22;66927;48.812;9.118;2024-03-08T08:04:38;4.50;99.90
12827;DHT22;66927;48.812;9.118;2024-03-08T08:07:04;4.40;99.90
12827;DHT22;66927;48.812;9.118;2024-03-08T08:09:29;4.40;99.90
12827;DHT22;66927;48.812;9.118;2024-03-08T08:12:00;4.30;99.90
12827;DHT22;66927;48.812;9.118;2024-03-08T08:14:28;4.40;99.90
12827;DHT22;66927;48.812;9.118;2024-03-08T08:16:54;4.20;99.90
12827;DHT22;66927;48.812;9.118;2024-03-08T08:19:21;4.40;99.90
12827;DHT22;66927;48.812;9.118;2024-03-08T08:21:47;4.30;99.90
12827;DHT22;66927;48.812;9.118;2024-03-08T08:24:12;4.40;99.90
12827;DHT22;66927;48.812;9.118;2024-03-08T08:26:38;4.50;99.90
12827;DHT22;66927;48.812;9.118;2024-03-08T08:29:05;4.60;99.90
12827;DHT22;66927;48.812;9.118;2024-03-08T08:31:32;4.50;99.90
12827;DHT22;66927;48.812;9.118;2024-03-08T08:33:58;4.60;99.90
12827;DHT22;66927;48.812;9.118;2024-03-08T08:36:25;4.70;99.90
12827;DHT22;66927;48.812;9.118;2024-03-08T08:38:51;4.60;99.90
12827;DHT22;66927;48.812;9.118;2024-03-08T08:41:21;4.70;99.90
12827;DHT22;66927;48.812;9.118;2024-03-08T08:43:48;4.60;99.90
12827;DHT22;66927;48.812;9.118;2024-03-08T08:46:17;4.50;99.90
12827;DHT22;66927;48.812;9.118;2024-03-08T08:48:43;4.40;99.90
12827;DHT22;66927;48.812;9.118;2024-03-08T08:51:11;4.50;99.90
12827;DHT22;66927;48.812;9.118;2024-03-08T08:53:40;4.70;99.90
12827;DHT22;66927;48.812;9.118;2024-03-08T08:56:12;4.60;99.90
12827;DHT22;66927;48.812;9.118;2024-03-08T08:58:44;4.90;99.90
12827;DHT22;66927;48.812;9.118;2024-03-08T09:01:10;4.70;99.90
12827;DHT22;66927;48.812;9.118;2024-03-08T09:03:38;4.70;99.90
12827;DHT22;66927;48.812;9.118;2024-03-08T09:06:07;4.70;99.90
12827;DHT22;66927;48.812;9.118;2024-03-08T09:08:36;4.60;99.90
12827;DHT22;66927;48.812;9.118;2024-03-08T09:11:02;4.80;99.90
12827;DHT22;66927;48.812;9.118;2024-03-08T09:13:28;4.70;99.90
12827;DHT22;66927;48.812;9.118;2024-03-08T09:15:53;4.80;99.90
12827;DHT22;66927;48.812;9.118;2024-03-08T09:18:19;4.80;99.90
12827;DHT22;66927;48.812;9.118;2024-03-08T09:20:45;4.80;99.90
12827;DHT22;66927;48.812;9.118;2024-03-08T09:23:11;4.80;99.90
12827;DHT22;66927;48.812;9.118;2024-03-08T09:25:36;4.80;99.90
12827;DHT22;66927;48.812;9.118;2024-03-08T09:28:03;4.90;99.90
12827;DHT22;66927;48.812;9.118;2024-03-08T09:30:31;4.90;99.90
12827;DHT22;66927;48.812;9.118;2024-03-08T09:32:57;5.00;99.90
12827;DHT22;66927;48.812;9.118;2024-03-08T09:35:22;5.10;99.90
12827;DHT22;66927;48.812;9.118;2024-03-08T09:37:48;5.00;99.90
12827;DHT22;66927;48.812;9.118;2024-03-08T09:40:17;5.00;99.90
12827;DHT22;66927;48.812;9.118;2024-03-08T09:42:46;5.10;99.90
12827;DHT22;66927;48.812;9.118;2024-03-08T09:45:13;5.00;99.90
12827;DHT22;66927;48.812;9.118;2024-03-08T09:47:44;5.10;99.90
12827;DHT22;66927;48.812;9.118;2024-03-08T09:50:10;5.10;99.90
12827;DHT22;66927;48.812;9.118;2024-03-08T09:52:38;5.10;99.90
12827;DHT22;66927;48.812;9.118;2024-03-08T09:55:06;5.00;99.90
12827;DHT22;66927;48.812;9.118;2024-03-08T09:57:36;5.10;99.90
12827;DHT22;66927;48.812;9.118;2024-03-08T10:00:03;5.00;99.90
12827;DHT22;66927;48.812;9.118;2024-03-08T10:02:37;5.10;99.90
12827;DHT22;66927;48.812;9.118;2024-03-08T10:05:03;5.10;99.90
12827;DHT22;66927;48.812;9.118;2024-03-08T10:07:28;5.20;99.90
12827;DHT22;66927;48.812;9.118;2024-03-08T10:09:55;5.20;99.90
12827;DHT22;66927;48.812;9.118;2024-03-08T10:12:20;5.20;99.90
12827;DHT22;66927;48.812;9.118;2024-03-08T10:14:46;5.30;99.90
12827;DHT22;66927;48.812;9.118;2024-03-08T10:17:12;5.30;99.90
12827;DHT22;66927;48.812;9.118;2024-03-08T10:19:38;5.40;99.90
12827;DHT22;66927;48.812;9.118;2024-03-08T10:22:06;5.30;99.90
12827;DHT22;66927;48.812;9.118;2024-03-08T10:24:32;5.40;99.90
12827;DHT22;66927;48.812;9.118;2024-03-08T10:27:00;5.20;99.90
12827;DHT22;66927;48.812;9.118;2024-03-08T10:29:28;5.30;99.90
12827;DHT22;66927;48.812;9.118;2024-03-08T10:31:54;5.30;99.90
12827;DHT22;66927;48.812;9.118;2024-03-08T10:34:21;5.40;99.90
12827;DHT22;66927;48.812;9.118;2024-03-08T10:36:51;5.50;99.90
12827;DHT22;66927;48.812;9.118;2024-03-08T10:39:23;5.40;99.90
12827;DHT22;66927;48.812;9.118;2024-03-08T10:41:56;5.30;99.90
12827;DHT22;66927;48.812;9.118;2024-03-08T10:44:32;5.40;99.90
12827;DHT22;66927;48.812;9.118;2024-03-08T10:47:18;5.40;99.90
12827;DHT22;66927;48.812;9.118;2024-03-08T10:52:29;5.50;99.90
12827;DHT22;66927;48.812;9.118;2024-03-08T10:54:56;5.70;99.90
12827;DHT22;66927;48.812;9.118;2024-03-08T10:57:22;5.70;99.90
12827;DHT22;66927;48.812;9.118;2024-03-08T10:59:49;5.70;99.90
12827;DHT22;66927;48.812;9.118;2024-03-08T11:02:17;5.70;99.90
12827;DHT22;66927;48.812;9.118;2024-03-08T11:04:48;5.60;99.90
12827;DHT22;66927;48.812;9.118;2024-03-08T11:07:15;5.60;99.90
12827;DHT22;66927;48.812;9.118;2024-03-08T11:09:49;5.80;99.90
12827;DHT22;66927;48.812;9.118;2024-03-08T11:12:23;5.90;99.90
12827;DHT22;66927;48.812;9.118;2024-03-08T11:14:55;6.10;99.90
12827;DHT22;66927;48.812;9.118;2024-03-08T11:17:26;6.20;99.90
12827;DHT22;66927;48.812;9.118;2024-03-08T11:19:55;6.30;99.90
12827;DHT22;66927;48.812;9.118;2024-03-08T11:22:33;6.30;99.90
12827;DHT22;66927;48.812;9.118;2024-03-08T11:25:05;6.40;99.90
12827;DHT22;66927;48.812;9.118;2024-03-08T11:27:36;6.30;99.90
12827;DHT22;66927;48.812;9.118;2024-03-08T11:30:07;6.30;99.90
12827;DHT22;66927;48.812;9.118;2024-03-08T11:32:43;6.40;99.90
12827;DHT22;66927;48.812;9.118;2024-03-08T11:35:19;6.40;99.90
12827;DHT22;66927;48.812;9.118;2024-03-08T11:37:44;6.40;99.90
12827;DHT22;66927;48.812;9.118;2024-03-08T11:40:13;6.40;99.90
12827;DHT22;66927;48.812;9.118;2024-03-08T11:42:44;6.50;99.90
12827;DHT22;66927;48.812;9.118;2024-03-08T11:45:12;6.60;99.90
12827;DHT22;66927;48.812;9.118;2024-03-08T11:47:41;7.00;99.90
12827;DHT22;66927;48.812;9.118;2024-03-08T11:50:11;7.30;99.90
12827;DHT22;66927;48.812;9.118;2024-03-08T11:52:37;7.40;99.90
12827;DHT22;66927;48.812;9.118;2024-03-08T11:55:04;7.50;99.90
12827;DHT22;66927;48.812;9.118;2024-03-08T11:57:31;7.60;99.90
12827;DHT22;66927;48.812;9.118;2024-03-08T11:59:58;7.60;99.90
12827;DHT22;66927;48.812;9.118;2024-03-08T12:02:27;7.60;99.90
12827;DHT22;66927;48.812;9.118;2024-03-08T12:04:57;7.90;99.90
12827;DHT22;66927;48.812;9.118;2024-03-08T12:07:25;7.90;99.90
12827;DHT22;66927;48.812;9.118;2024-03-08T12:10:20;7.90;99.90
12827;DHT22;66927;48.812;9.118;2024-03-08T12:12:53;8.10;99.90
12827;DHT22;66927;48.812;9.118;2024-03-08T12:15:25;8.50;99.90
12827;DHT22;66927;48.812;9.118;2024-03-08T12:17:52;8.70;99.90
12827;DHT22;66927;48.812;9.118;2024-03-08T12:20:22;9.10;99.90
12827;DHT22;66927;48.812;9.118;2024-03-08T12:22:48;9.40;99.90
12827;DHT22;66927;48.812;9.118;2024-03-08T12:25:15;9.80;99.90
12827;DHT22;66927;48.812;9.118;2024-03-08T12:27:42;10.10;99.90
12827;DHT22;66927;48.812;9.118;2024-03-08T12:30:27;10.40;99.90
12827;DHT22;66927;48.812;9.118;2024-03-08T12:33:00;10.70;99.90
12827;DHT22;66927;48.812;9.118;2024-03-08T12:35:30;10.90;99.90
12827;DHT22;66927;48.812;9.118;2024-03-08T12:37:57;11.10;99.90
12827;DHT22;66927;48.812;9.118;2024-03-08T12:40:30;11.20;99.90
12827;DHT22;66927;48.812;9.118;2024-03-08T12:43:07;11.20;99.90
12827;DHT22;66927;48.812;9.118;2024-03-08T12:45:32;11.40;99.90
12827;DHT22;66927;48.812;9.118;2024-03-08T12:47:58;11.50;99.90
12827;DHT22;66927;48.812;9.118;2024-03-08T12:50:25;11.70;99.90
12827;DHT22;66927;48.812;9.118;2024-03-08T12:52:52;11.70;99.90
12827;DHT22;66927;48.812;9.118;2024-03-08T12:55:21;11.70;99.90
12827;DHT22;66927;48.812;9.118;2024-03-08T12:57:47;11.70;99.90
12827;DHT22;66927;48.812;9.118;2024-03-08T13:00:14;11.90;99.90
12827;DHT22;66927;48.812;9.118;2024-03-08T13:02:48;11.90;99.90
12827;DHT22;66927;48.812;9.118;2024-03-08T13:05:16;12.00;99.90
12827;DHT22;66927;48.812;9.118;2024-03-08T13:07:42;12.00;99.90
12827;DHT22;66927;48.812;9.118;2024-03-08T13:10:14;12.10;99.90
12827;DHT22;66927;48.812;9.118;2024-03-08T13:12:44;12.30;99.90
12827;DHT22;66927;48.812;9.118;2024-03-08T13:15:11;12.50;99.90
12827;DHT22;66927;48.812;9.118;2024-03-08T13:17:41;12.60;99.90
12827;DHT22;66927;48.812;9.118;2024-03-08T13:20:08;12.70;99.90
12827;DHT22;66927;48.812;9.118;2024-03-08T13:22:35;12.80;99.90
12827;DHT22;66927;48.812;9.118;2024-03-08T13:25:02;12.90;99.90
12827;DHT22;66927;48.812;9.118;2024-03-08T13:27:28;12.90;99.50
12827;DHT22;66927;48.812;9.118;2024-03-08T13:29:54;12.90;99.60
12827;DHT22;66927;48.812;9.118;2024-03-08T13:32:19;12.80;99.10
12827;DHT22;66927;48.812;9.118;2024-03-08T13:34:49;12.80;99.60
12827;DHT22;66927;48.812;9.118;2024-03-08T13:37:16;12.90;99.20
12827;DHT22;66927;48.812;9.118;2024-03-08T13:39:42;13.00;99.20
12827;DHT22;66927;48.812;9.118;2024-03-08T13:42:11;13.00;99.30
12827;DHT22;66927;48.812;9.118;2024-03-08T13:44:39;13.10;99.20
12827;DHT22;66927;48.812;9.118;2024-03-08T13:47:05;13.30;99.60
12827;DHT22;66927;48.812;9.118;2024-03-08T13:49:31;13.40;99.10
12827;DHT22;66927;48.812;9.118;2024-03-08T13:51:56;13.30;98.00
12827;DHT22;66927;48.812;9.118;2024-03-08T13:54:24;13.30;98.50
12827;DHT22;66927;48.812;9.118;2024-03-08T13:56:50;13.40;98.20
12827;DHT22;66927;48.812;9.118;2024-03-08T13:59:20;13.40;97.50
12827;DHT22;66927;48.812;9.118;2024-03-08T14:01:48;13.10;97.60
12827;DHT22;66927;48.812;9.118;2024-03-08T14:04:14;13.00;98.00
12827;DHT22;66927;48.812;9.118;2024-03-08T14:06:42;12.80;98.00
12827;DHT22;66927;48.812;9.118;2024-03-08T14:09:11;12.90;98.20
12827;DHT22;66927;48.812;9.118;2024-03-08T14:11:45;13.10;98.30
12827;DHT22;66927;48.812;9.118;2024-03-08T14:14:11;13.10;97.80
12827;DHT22;66927;48.812;9.118;2024-03-08T14:16:40;13.20;97.70
12827;DHT22;66927;48.812;9.118;2024-03-08T14:19:05;13.20;97.20
12827;DHT22;66927;48.812;9.118;2024-03-08T14:21:32;13.10;97.80
12827;DHT22;66927;48.812;9.118;2024-03-08T14:23:58;13.30;98.20
12827;DHT22;66927;48.812;9.118;2024-03-08T14:26:24;13.50;98.10
12827;DHT22;66927;48.812;9.118;2024-03-08T14:28:50;13.50;97.20
12827;DHT22;66927;48.812;9.118;2024-03-08T14:31:20;13.50;96.70
12827;DHT22;66927;48.812;9.118;2024-03-08T14:33:51;13.50;97.40
12827;DHT22;66927;48.812;9.118;2024-03-08T14:36:18;13.60;97.60
12827;DHT22;66927;48.812;9.118;2024-03-08T14:38:45;13.80;97.30
12827;DHT22;66927;48.812;9.118;2024-03-08T14:41:13;13.90;97.10
12827;DHT22;66927;48.812;9.118;2024-03-08T14:43:43;13.90;96.40
12827;DHT22;66927;48.812;9.118;2024-03-08T14:46:13;13.90;96.20
12827;DHT22;66927;48.812;9.118;2024-03-08T14:48:52;13.90;96.30
12827;DHT22;66927;48.812;9.118;2024-03-08T14:51:19;13.90;96.70
12827;DHT22;66927;48.812;9.118;2024-03-08T14:53:47;14.00;96.30
12827;DHT22;66927;48.812;9.118;2024-03-08T14:56:13;14.10;96.40
12827;DHT22;66927;48.812;9.118;2024-03-08T14:58:43;14.00;96.00
12827;DHT22;66927;48.812;9.118;2024-03-08T15:01:12;14.10;96.10
12827;DHT22;66927;48.812;9.118;2024-03-08T15:03:41;14.00;96.10
12827;DHT22;66927;48.812;9.118;2024-03-08T15:06:10;14.10;96.40
12827;DHT22;66927;48.812;9.118;2024-03-08T15:08:36;14.10;95.80
12827;DHT22;66927;48.812;9.118;2024-03-08T15:11:03;14.00;96.20
12827;DHT22;66927;48.812;9.118;2024-03-08T15:13:29;14.00;96.00
12827;DHT22;66927;48.812;9.118;2024-03-08T15:16:05;14.00;96.20
12827;DHT22;66927;48.812;9.118;2024-03-08T15:18:31;14.00;96.50
12827;DHT22;66927;48.812;9.118;2024-03-08T15:21:00;14.10;96.40
12827;DHT22;66927;48.812;9.118;2024-03-08T15:23:26;14.20;96.20
12827;DHT22;66927;48.812;9.118;2024-03-08T15:25:51;14.20;95.80
12827;DHT22;66927;48.812;9.118;2024-03-08T15:28:17;14.20;96.10
12827;DHT22;66927;48.812;9.118;2024-03-08T15:30:46;14.20;96.20
12827;DHT22;66927;48.812;9.118;2024-03-08T15:33:16;14.20;96.40
12827;DHT22;66927;48.812;9.118;2024-03-08T15:35:50;14.20;96.40
12827;DHT22;66927;48.812;9.118;2024-03-08T15:38:23;14.20;96.10
12827;DHT22;66927;48.812;9.118;2024-03-08T15:40:49;14.20;96.50
12827;DHT22;66927;48.812;9.118;2024-03-08T15:43:16;14.30;96.60
12827;DHT22;66927;48.812;9.118;2024-03-08T15:45:46;14.20;96.60
12827;DHT22;66927;48.812;9.118;2024-03-08T15:48:14;14.20;96.00